Time;durP1;ratioP1;P1;durP2;ratioP2;P2;SDS_P1;SDS_P2;PMS_P1;PMS_P2;Temp;Humidity;BMP_temperature;BMP_pressure;BME280_temperature;BME280_humidity;BME280_pressure;Samples;Min_cycle;Max_cycle;Signal;HPM_P1;HPM_P2
2022/06/28 00:00:23;;;;;;;13.70;8.82;;;13.70;99.90;;;;;;5088129;28;20120;-80
2022/06/28 00:02:49;;;;;;;9.68;8.63;;;13.70;99.90;;;;;;5072596;28;20143;-81
2022/06/28 00:05:15;;;;;;;11.30;8.95;;;13.70;99.90;;;;;;5082569;28;20064;-80
2022/06/28 00:11:22;;;;;;;12.70;9.15;;;13.60;99.90;;;;;;5078377;28;20182;-82
2022/06/28 00:13:48;;;;;;;16.55;10.38;;;13.60;99.90;;;;;;5073852;28;20487;-80
2022/06/28 00:16:16;;;;;;;11.73;9.95;;;13.70;99.90;;;;;;5034657;28;20047;-79
2022/06/28 00:18:43;;;;;;;14.38;10.75;;;13.50;99.90;;;;;;5030505;28;20554;-81
2022/06/28 00:21:10;;;;;;;15.02;10.63;;;13.50;99.90;;;;;;5050273;28;20415;-78
2022/06/28 00:23:37;;;;;;;12.48;9.63;;;13.40;99.90;;;;;;5068353;28;20043;-81
2022/06/28 00:26:04;;;;;;;13.25;9.73;;;13.40;99.90;;;;;;5087479;28;20098;-80
2022/06/28 00:28:30;;;;;;;17.13;10.98;;;13.40;99.90;;;;;;5061768;28;20177;-81
2022/06/28 00:30:56;;;;;;;14.57;10.40;;;13.40;99.90;;;;;;5071003;28;20488;-82
2022/06/28 00:33:22;;;;;;;14.13;9.73;;;13.30;99.90;;;;;;5052378;28;20112;-81
2022/06/28 00:35:47;;;;;;;16.67;10.02;;;13.20;99.90;;;;;;5054093;28;20400;-81
2022/06/28 00:38:13;;;;;;;13.57;10.35;;;13.20;99.90;;;;;;5069558;28;20138;-80
2022/06/28 00:40:46;;;;;;;12.25;10.00;;;13.20;99.90;;;;;;5037201;28;20032;-80
2022/06/28 00:43:15;;;;;;;14.77;9.43;;;13.20;99.90;;;;;;5086129;28;20109;-80
2022/06/28 00:45:45;;;;;;;14.27;10.00;;;13.20;99.90;;;;;;5054740;28;20482;-82
2022/06/28 00:48:16;;;;;;;15.90;9.65;;;13.40;99.90;;;;;;5056403;28;20171;-81
2022/06/28 00:50:45;;;;;;;13.05;9.63;;;13.10;99.90;;;;;;5050639;28;20044;-81
2022/06/28 00:53:16;;;;;;;16.40;9.88;;;13.10;99.90;;;;;;5063153;28;20044;-79
2022/06/28 00:55:46;;;;;;;14.88;9.90;;;13.00;99.90;;;;;;5038594;28;20054;-80
2022/06/28 00:58:14;;;;;;;12.93;10.40;;;13.00;99.90;;;;;;5081043;28;20037;-77
2022/06/28 01:00:46;;;;;;;14.38;10.25;;;13.20;99.90;;;;;;5048287;28;20052;-78
2022/06/28 01:03:14;;;;;;;18.30;10.63;;;13.00;99.90;;;;;;5062961;28;21008;-77
2022/06/28 01:05:41;;;;;;;12.80;10.63;;;12.90;99.90;;;;;;5067324;28;20216;-81
2022/06/28 01:08:08;;;;;;;14.50;10.45;;;12.90;99.90;;;;;;5046630;28;20181;-79
2022/06/28 01:10:35;;;;;;;11.10;9.93;;;12.80;99.90;;;;;;5081297;28;20063;-81
2022/06/28 01:13:01;;;;;;;15.57;10.38;;;12.80;99.90;;;;;;5063521;28;21062;-79
2022/06/28 01:15:27;;;;;;;13.10;9.73;;;12.80;99.90;;;;;;5066077;28;20123;-80
2022/06/28 01:17:53;;;;;;;13.27;11.30;;;12.90;99.90;;;;;;5030961;28;20108;-78
2022/06/28 01:20:20;;;;;;;14.52;11.15;;;12.80;99.90;;;;;;5032855;28;20135;-80
2022/06/28 01:22:46;;;;;;;12.98;10.00;;;12.90;99.90;;;;;;5053752;28;20048;-79
2022/06/28 01:25:15;;;;;;;14.68;10.65;;;12.80;99.90;;;;;;5080165;28;20075;-77
2022/06/28 01:27:41;;;;;;;17.08;11.00;;;12.90;99.90;;;;;;5055982;28;20066;-79
2022/06/28 01:30:08;;;;;;;11.65;10.15;;;12.90;99.90;;;;;;5071205;28;20044;-79
2022/06/28 01:32:34;;;;;;;15.43;10.65;;;12.80;99.90;;;;;;5092839;28;20606;-78
2022/06/28 01:35:01;;;;;;;17.45;10.68;;;12.80;99.90;;;;;;5067981;28;20126;-78
2022/06/28 01:37:27;;;;;;;16.83;10.52;;;12.90;99.90;;;;;;5061818;28;20040;-81
2022/06/28 01:39:53;;;;;;;11.13;9.15;;;12.90;99.90;;;;;;5054296;28;20120;-78
2022/06/28 01:42:18;;;;;;;13.18;10.27;;;12.90;99.90;;;;;;5068070;28;20115;-78
2022/06/28 01:44:45;;;;;;;14.82;10.70;;;12.90;99.90;;;;;;5031720;28;20080;-81
2022/06/28 01:47:13;;;;;;;13.27;9.00;;;12.90;99.90;;;;;;5032496;28;20067;-79
2022/06/28 01:49:39;;;;;;;14.57;9.10;;;12.90;99.90;;;;;;5077830;28;20060;-80
2022/06/28 01:52:05;;;;;;;14.63;9.35;;;13.30;99.90;;;;;;5043174;28;20045;-81
2022/06/28 01:54:31;;;;;;;15.85;9.70;;;12.90;99.90;;;;;;5046648;28;20692;-79
2022/06/28 01:56:57;;;;;;;16.52;10.32;;;12.80;99.90;;;;;;5060115;28;20113;-80
2022/06/28 01:59:23;;;;;;;16.00;9.80;;;12.70;99.90;;;;;;5048510;28;20036;-80
2022/06/28 02:01:50;;;;;;;16.30;10.02;;;12.80;99.90;;;;;;5033754;28;20474;-80
2022/06/28 02:04:27;;;;;;;15.48;9.57;;;12.80;99.90;;;;;;5076426;28;20032;-79
2022/06/28 02:06:53;;;;;;;16.98;9.60;;;12.80;99.90;;;;;;5045470;28;20045;-79
2022/06/28 02:09:19;;;;;;;18.27;9.60;;;12.80;99.90;;;;;;5080025;28;20040;-80
2022/06/28 02:11:45;;;;;;;14.50;9.57;;;12.80;99.90;;;;;;5080967;28;20090;-80
2022/06/28 02:14:11;;;;;;;14.35;9.50;;;12.70;99.90;;;;;;5073379;28;20602;-81
2022/06/28 02:16:37;;;;;;;14.20;9.80;;;12.80;99.90;;;;;;5066066;28;20047;-79
2022/06/28 02:19:04;;;;;;;15.27;10.18;;;12.80;99.90;;;;;;5078392;28;20059;-81
2022/06/28 02:21:41;;;;;;;11.90;9.40;;;12.80;99.90;;;;;;5041667;28;20056;-80
2022/06/28 02:24:09;;;;;;;17.95;9.73;;;12.90;99.90;;;;;;5048902;28;20044;-81
2022/06/28 02:26:35;;;;;;;13.13;9.20;;;12.60;99.90;;;;;;5080812;28;20046;-81
2022/06/28 02:29:02;;;;;;;14.45;9.40;;;12.60;99.90;;;;;;5030489;28;20052;-80
2022/06/28 02:31:28;;;;;;;14.25;9.20;;;12.60;99.90;;;;;;5078743;28;20037;-80
2022/06/28 02:33:54;;;;;;;12.63;9.43;;;12.60;99.90;;;;;;5064392;28;20043;-79
2022/06/28 02:42:10;;;;;;;18.88;10.10;;;12.60;99.90;;;;;;5073851;28;20041;-79
2022/06/28 02:44:36;;;;;;;20.10;10.20;;;12.50;99.90;;;;;;5047349;28;20059;-80
2022/06/28 02:47:02;;;;;;;16.70;9.35;;;12.50;99.90;;;;;;5047994;28;20045;-80
2022/06/28 02:49:28;;;;;;;15.73;9.57;;;12.50;99.90;;;;;;5029570;28;20048;-80
2022/06/28 02:51:53;;;;;;;13.77;9.90;;;12.50;99.90;;;;;;5054304;28;20052;-79
2022/06/28 02:54:19;;;;;;;14.48;9.60;;;12.40;99.90;;;;;;5053452;28;20036;-82
2022/06/28 02:56:44;;;;;;;20.17;10.57;;;12.40;99.90;;;;;;5053096;28;20032;-80
2022/06/28 02:59:10;;;;;;;13.20;10.13;;;12.40;99.90;;;;;;5054615;28;20028;-79
2022/06/28 03:01:36;;;;;;;13.10;9.63;;;12.40;99.90;;;;;;5075961;28;20044;-79
2022/06/28 03:04:02;;;;;;;12.45;9.55;;;12.50;99.90;;;;;;5068880;28;20076;-79
2022/06/28 03:06:27;;;;;;;15.68;9.65;;;12.40;99.90;;;;;;5067060;28;20166;-78
2022/06/28 03:09:14;;;;;;;16.85;10.55;;;12.40;99.90;;;;;;5049478;28;20048;-80
2022/06/28 03:11:40;;;;;;;16.85;9.43;;;12.40;99.90;;;;;;5079536;28;20113;-79
2022/06/28 03:14:06;;;;;;;20.45;10.07;;;12.40;99.90;;;;;;5078174;28;20160;-80
2022/06/28 03:16:32;;;;;;;19.27;9.70;;;12.40;99.90;;;;;;5063453;28;20135;-80
2022/06/28 03:18:57;;;;;;;20.77;10.48;;;12.30;99.90;;;;;;5076935;28;20136;-80
2022/06/28 03:21:23;;;;;;;13.48;9.75;;;12.30;99.90;;;;;;5047375;28;20790;-80
2022/06/28 03:23:49;;;;;;;14.65;10.02;;;12.40;99.90;;;;;;5044249;28;20093;-79
2022/06/28 03:26:14;;;;;;;18.23;10.13;;;12.40;99.90;;;;;;5051407;28;20104;-79
2022/06/28 03:28:40;;;;;;;15.27;9.75;;;12.40;99.90;;;;;;5065069;28;20147;-80
2022/06/28 03:31:06;;;;;;;21.20;8.95;;;12.40;99.90;;;;;;5061655;28;20387;-81
2022/06/28 03:33:32;;;;;;;15.18;10.07;;;12.30;99.90;;;;;;5034998;28;20051;-81
2022/06/28 03:35:58;;;;;;;12.85;9.40;;;12.40;99.90;;;;;;5029198;28;20036;-81
2022/06/28 03:38:24;;;;;;;12.13;9.60;;;12.40;99.90;;;;;;5080641;28;20040;-81
2022/06/28 03:40:49;;;;;;;12.18;9.45;;;12.50;99.90;;;;;;5045866;28;20036;-80
2022/06/28 03:43:15;;;;;;;18.20;10.60;;;12.50;99.90;;;;;;5066216;28;20043;-81
2022/06/28 03:45:41;;;;;;;15.50;10.27;;;12.70;99.90;;;;;;5050627;28;20040;-81
2022/06/28 03:48:07;;;;;;;12.93;9.68;;;12.60;99.90;;;;;;5054821;28;20041;-79
2022/06/28 03:50:33;;;;;;;11.30;9.50;;;12.70;99.90;;;;;;5036440;28;20063;-80
2022/06/28 03:56:39;;;;;;;15.93;10.02;;;12.70;99.90;;;;;;5065178;28;20095;-80
2022/06/28 03:59:05;;;;;;;13.50;10.05;;;12.90;99.90;;;;;;5046202;28;20040;-80
2022/06/28 04:01:30;;;;;;;15.30;9.13;;;12.90;99.90;;;;;;5043678;28;20049;-81
2022/06/28 04:03:56;;;;;;;17.27;9.75;;;12.80;99.90;;;;;;5061857;28;20122;-81
2022/06/28 04:06:22;;;;;;;18.70;10.15;;;12.90;99.90;;;;;;5061843;28;20124;-80
2022/06/28 04:08:48;;;;;;;16.98;9.45;;;12.80;99.90;;;;;;5058172;28;20442;-80
2022/06/28 04:11:13;;;;;;;16.35;10.20;;;12.80;99.90;;;;;;5077650;28;20056;-80
2022/06/28 04:13:42;;;;;;;17.48;9.18;;;13.10;99.90;;;;;;5044933;28;20044;-79
2022/06/28 04:16:10;;;;;;;14.90;8.95;;;12.80;99.90;;;;;;5029897;28;20505;-80
2022/06/28 04:18:37;;;;;;;15.90;9.25;;;12.80;99.90;;;;;;5064099;28;20053;-80
2022/06/28 04:21:03;;;;;;;11.90;9.02;;;12.80;99.90;;;;;;5049262;28;20391;-80
2022/06/28 04:23:29;;;;;;;17.00;9.77;;;12.90;99.90;;;;;;5033663;28;20044;-79
2022/06/28 04:25:55;;;;;;;13.93;8.50;;;13.00;99.90;;;;;;5072947;28;20048;-80
2022/06/28 04:28:20;;;;;;;13.35;8.60;;;13.40;99.90;;;;;;5087590;28;21658;-79
2022/06/28 04:30:46;;;;;;;13.50;7.88;;;13.50;99.90;;;;;;5063373;28;20040;-79
2022/06/28 04:33:12;;;;;;;15.27;8.55;;;13.60;99.90;;;;;;5081121;28;20033;-78
2022/06/28 04:35:38;;;;;;;18.95;7.97;;;13.80;99.90;;;;;;5060623;28;20053;-80
2022/06/28 04:38:03;;;;;;;11.63;7.60;;;14.10;99.90;;;;;;5072840;28;20036;-79
2022/06/28 04:40:32;;;;;;;10.60;7.13;;;15.10;99.90;;;;;;5046897;28;20041;-80
2022/06/28 04:42:57;;;;;;;8.77;6.55;;;15.80;99.90;;;;;;5049220;28;20041;-80
2022/06/28 04:45:23;;;;;;;9.95;6.28;;;16.50;99.90;;;;;;5083023;28;20040;-81
2022/06/28 04:47:49;;;;;;;11.52;6.40;;;17.20;99.90;;;;;;5052619;28;20037;-81
2022/06/28 04:50:14;;;;;;;10.15;5.35;;;17.70;99.90;;;;;;5049934;28;20037;-81
2022/06/28 04:52:40;;;;;;;11.10;6.00;;;18.10;99.90;;;;;;5065299;28;20695;-81
2022/06/28 04:55:06;;;;;;;8.88;5.55;;;18.50;99.90;;;;;;5048674;28;20067;-79
2022/06/28 04:57:32;;;;;;;9.55;5.30;;;18.80;99.90;;;;;;5048389;28;20105;-79
2022/06/28 04:59:58;;;;;;;12.43;5.85;;;18.90;99.90;;;;;;5080485;28;20073;-79
2022/06/28 05:02:24;;;;;;;12.77;5.10;;;19.30;99.90;;;;;;5066162;28;20036;-80
2022/06/28 05:04:49;;;;;;;10.23;5.63;;;18.70;99.90;;;;;;5078900;28;20063;-79
2022/06/28 05:07:15;;;;;;;10.43;6.00;;;17.90;99.90;;;;;;5048489;28;20048;-80
2022/06/28 05:09:41;;;;;;;9.52;5.70;;;17.30;99.90;;;;;;5033806;28;20459;-80
2022/06/28 05:12:07;;;;;;;11.65;6.15;;;16.80;99.90;;;;;;5054548;28;20101;-79
2022/06/28 05:14:33;;;;;;;8.65;5.50;;;16.50;99.90;;;;;;5078521;28;20040;-80
2022/06/28 05:16:59;;;;;;;11.43;6.40;;;16.20;99.90;;;;;;5082655;28;20044;-80
2022/06/28 05:19:26;;;;;;;12.60;6.65;;;15.90;99.90;;;;;;5053407;28;20049;-79
2022/06/28 05:21:52;;;;;;;16.33;6.47;;;15.90;99.90;;;;;;5069965;28;20068;-79
2022/06/28 05:24:17;;;;;;;10.82;6.25;;;15.70;99.90;;;;;;5055383;28;20067;-80
2022/06/28 05:26:43;;;;;;;12.10;6.18;;;15.60;99.90;;;;;;5051188;28;20045;-80
2022/06/28 05:29:09;;;;;;;11.20;6.15;;;15.60;99.90;;;;;;5038167;28;20422;-79
2022/06/28 05:31:35;;;;;;;19.50;6.10;;;15.60;99.90;;;;;;5047286;28;20052;-80
2022/06/28 05:34:02;;;;;;;9.95;5.05;;;15.50;99.90;;;;;;5048866;28;20094;-80
2022/06/28 05:36:28;;;;;;;11.52;4.78;;;15.50;99.90;;;;;;5068833;28;20078;-80
2022/06/28 05:38:54;;;;;;;10.10;5.30;;;15.50;99.90;;;;;;5067154;28;20388;-80
2022/06/28 05:41:20;;;;;;;11.02;3.72;;;15.50;99.90;;;;;;5061421;28;20051;-76
2022/06/28 05:43:45;;;;;;;8.05;3.55;;;15.80;99.90;;;;;;5029510;28;20041;-78
2022/06/28 05:46:11;;;;;;;20.48;4.13;;;15.90;99.90;;;;;;5057924;28;20041;-79
2022/06/28 05:48:37;;;;;;;20.23;3.75;;;16.00;99.90;;;;;;5056180;28;20049;-79
2022/06/28 05:51:03;;;;;;;15.27;4.55;;;16.10;99.90;;;;;;5044996;28;20051;-76
2022/06/28 06:00:41;;;;;;;17.38;4.82;;;16.40;99.90;;;;;;5098638;28;20226;-76
2022/06/28 06:03:07;;;;;;;11.18;4.22;;;16.50;99.90;;;;;;5064984;28;20048;-79
2022/06/28 06:05:33;;;;;;;12.25;5.18;;;16.60;99.90;;;;;;5024840;28;20129;-79
2022/06/28 06:07:58;;;;;;;12.05;5.10;;;16.70;99.90;;;;;;5043320;28;20152;-82
2022/06/28 06:10:24;;;;;;;9.70;4.40;;;16.70;99.90;;;;;;5077052;28;20103;-82
2022/06/28 06:12:50;;;;;;;10.63;4.78;;;16.80;99.90;;;;;;5025821;28;20421;-79
2022/06/28 06:15:15;;;;;;;12.75;5.90;;;16.80;99.90;;;;;;5054578;28;20144;-80
2022/06/28 06:17:41;;;;;;;9.85;3.65;;;16.70;99.90;;;;;;5077241;28;20526;-78
2022/06/28 06:20:08;;;;;;;10.45;4.28;;;16.70;99.90;;;;;;5024628;28;20377;-78
2022/06/28 06:22:34;;;;;;;9.65;4.07;;;16.80;99.90;;;;;;5026082;28;20041;-78
2022/06/28 06:25:00;;;;;;;9.07;3.47;;;16.90;99.90;;;;;;5077128;28;20363;-77
2022/06/28 06:27:26;;;;;;;10.38;3.92;;;16.90;99.90;;;;;;5056818;28;20151;-79
2022/06/28 06:29:52;;;;;;;11.18;3.58;;;17.00;99.90;;;;;;5048124;28;20117;-78
2022/06/28 06:32:17;;;;;;;6.32;3.22;;;17.10;99.90;;;;;;5078350;28;20408;-78
2022/06/28 06:34:43;;;;;;;16.33;3.53;;;17.20;99.90;;;;;;5081205;28;20032;-75
2022/06/28 06:37:11;;;;;;;11.00;4.60;;;17.20;99.90;;;;;;5046842;28;20036;-81
2022/06/28 06:39:36;;;;;;;9.63;3.40;;;17.20;99.90;;;;;;5041325;28;20044;-80
2022/06/28 06:42:02;;;;;;;13.68;4.13;;;17.20;99.90;;;;;;5067596;28;20055;-80
2022/06/28 06:44:28;;;;;;;8.68;4.15;;;17.30;99.90;;;;;;5040683;28;20534;-78
2022/06/28 06:46:55;;;;;;;9.95;3.40;;;17.30;99.90;;;;;;5044018;28;20040;-76
2022/06/28 06:49:20;;;;;;;7.72;2.78;;;17.30;99.90;;;;;;5053564;28;20125;-79
2022/06/28 06:51:48;;;;;;;14.45;3.08;;;17.40;99.90;;;;;;5072832;28;20044;-80
2022/06/28 06:54:14;;;;;;;12.93;2.95;;;17.30;99.90;;;;;;5077144;28;20088;-84
2022/06/28 06:56:41;;;;;;;11.30;2.60;;;17.50;99.90;;;;;;5043992;28;20352;-82
2022/06/28 06:59:08;;;;;;;11.82;2.88;;;17.50;99.90;;;;;;5057473;28;20041;-76
2022/06/28 07:01:34;;;;;;;12.80;3.20;;;17.70;99.90;;;;;;5053579;28;20048;-81
2022/06/28 07:04:01;;;;;;;8.80;2.95;;;17.70;99.90;;;;;;5029396;28;20119;-79
2022/06/28 07:06:27;;;;;;;12.85;3.17;;;17.90;99.90;;;;;;5048681;28;20056;-75
2022/06/28 07:08:52;;;;;;;10.32;3.40;;;18.00;99.90;;;;;;5044957;28;20044;-80
2022/06/28 07:11:18;;;;;;;11.27;4.15;;;18.30;99.90;;;;;;5063060;28;20036;-81
2022/06/28 07:13:44;;;;;;;12.75;3.00;;;18.30;99.90;;;;;;5057971;28;20048;-77
2022/06/28 07:16:10;;;;;;;17.02;3.60;;;18.30;99.90;;;;;;5074384;28;20147;-75
2022/06/28 07:18:35;;;;;;;15.13;3.28;;;18.30;99.90;;;;;;5053476;28;20099;-76
2022/06/28 07:21:01;;;;;;;12.55;3.75;;;18.40;99.90;;;;;;5077339;28;20489;-80
2022/06/28 07:23:27;;;;;;;8.40;3.28;;;18.40;99.90;;;;;;5059548;28;20053;-78
2022/06/28 07:25:53;;;;;;;7.30;2.20;;;18.50;99.90;;;;;;5065156;28;20049;-74
2022/06/28 07:28:18;;;;;;;8.30;2.50;;;18.50;99.90;;;;;;5059965;28;20452;-78
2022/06/28 07:30:46;;;;;;;9.18;2.35;;;18.60;99.90;;;;;;5071209;28;20056;-78
2022/06/28 07:33:12;;;;;;;12.50;2.60;;;18.60;99.90;;;;;;5051033;28;20079;-75
2022/06/28 07:35:38;;;;;;;8.32;2.20;;;18.50;99.90;;;;;;5038843;28;20404;-76
2022/06/28 07:38:04;;;;;;;11.90;2.80;;;18.40;99.90;;;;;;5027541;28;20045;-74
2022/06/28 07:40:29;;;;;;;10.60;2.08;;;18.20;99.90;;;;;;5079408;28;22736;-75
2022/06/28 07:42:55;;;;;;;10.00;2.72;;;18.40;99.90;;;;;;5038806;28;20033;-77
2022/06/28 07:45:21;;;;;;;9.27;2.63;;;18.50;99.90;;;;;;5037472;28;20095;-77
2022/06/28 07:47:49;;;;;;;12.73;2.10;;;18.60;99.90;;;;;;5073371;28;20496;-76
2022/06/28 07:53:04;;;;;;;8.27;1.83;;;18.50;99.90;;;;;;5042546;28;20036;-77
2022/06/28 07:55:31;;;;;;;7.03;1.80;;;18.50;99.90;;;;;;5062200;28;20892;-78
2022/06/28 07:57:58;;;;;;;15.90;2.15;;;18.50;99.90;;;;;;5047174;28;20041;-75
2022/06/28 08:00:24;;;;;;;9.52;1.88;;;18.50;99.90;;;;;;5061829;28;20045;-74
2022/06/28 08:02:50;;;;;;;17.92;1.77;;;18.50;99.90;;;;;;5029073;28;20802;-74
2022/06/28 08:05:17;;;;;;;14.60;2.22;;;18.60;99.90;;;;;;5043131;28;20033;-74
2022/06/28 08:07:45;;;;;;;10.93;2.63;;;18.60;99.90;;;;;;5021711;28;20044;-74
2022/06/28 08:10:11;;;;;;;11.75;2.08;;;18.80;99.90;;;;;;5041674;28;20052;-75
2022/06/28 08:12:40;;;;;;;11.20;2.22;;;18.90;99.90;;;;;;5059725;28;21663;-74
2022/06/28 08:15:07;;;;;;;13.93;2.10;;;19.20;99.90;;;;;;5047271;28;20029;-74
2022/06/28 08:17:33;;;;;;;9.60;1.88;;;19.30;99.90;;;;;;5032005;28;20049;-75
2022/06/28 08:19:59;;;;;;;10.43;2.25;;;19.20;99.90;;;;;;5048042;28;20096;-76
2022/06/28 08:22:25;;;;;;;11.95;2.10;;;18.90;99.90;;;;;;5063596;28;20132;-75
2022/06/28 08:24:51;;;;;;;10.63;1.75;;;18.80;99.90;;;;;;5033620;28;20131;-75
2022/06/28 08:27:20;;;;;;;10.95;1.75;;;19.00;99.90;;;;;;5020748;28;20049;-76
2022/06/28 08:29:46;;;;;;;8.90;1.70;;;19.00;99.90;;;;;;5028696;28;20052;-76
2022/06/28 08:32:12;;;;;;;6.90;1.40;;;19.00;99.90;;;;;;5061019;28;20059;-75
2022/06/28 08:34:39;;;;;;;10.38;1.70;;;19.00;99.90;;;;;;5046731;28;20079;-75
2022/06/28 08:37:05;;;;;;;9.13;1.92;;;19.20;99.90;;;;;;5044365;28;20056;-75
2022/06/28 08:39:32;;;;;;;22.77;2.63;;;19.40;99.90;;;;;;5047651;28;20576;-76
2022/06/28 08:42:03;;;;;;;13.80;2.08;;;19.60;99.90;;;;;;5076289;28;20037;-75
2022/06/28 08:44:32;;;;;;;15.20;1.95;;;19.80;99.90;;;;;;5052539;28;20048;-74
2022/06/28 08:46:58;;;;;;;7.80;1.70;;;19.80;99.90;;;;;;5077130;28;20076;-77
2022/06/28 08:49:30;;;;;;;14.48;2.25;;;19.70;99.90;;;;;;5050892;28;20132;-76
2022/06/28 08:51:56;;;;;;;6.88;1.75;;;19.50;99.90;;;;;;5037912;28;20049;-76
2022/06/28 08:54:22;;;;;;;9.43;1.77;;;19.30;99.90;;;;;;5052627;28;20079;-76
2022/06/28 08:56:50;;;;;;;7.68;1.30;;;19.40;99.90;;;;;;5042847;28;20111;-76
2022/06/28 08:59:16;;;;;;;11.10;1.77;;;19.30;99.90;;;;;;5024272;28;20111;-76
2022/06/28 09:01:43;;;;;;;9.85;1.50;;;19.50;99.90;;;;;;5074217;28;20056;-77
2022/06/28 09:04:10;;;;;;;6.82;1.67;;;19.60;99.90;;;;;;5058714;28;20033;-76
2022/06/28 09:06:37;;;;;;;7.70;2.13;;;19.60;99.90;;;;;;5035262;28;20055;-76
2022/06/28 09:09:03;;;;;;;10.45;1.70;;;19.70;99.90;;;;;;5046328;28;20204;-76
2022/06/28 09:11:41;;;;;;;8.50;1.90;;;19.80;99.90;;;;;;5045045;28;20203;-79
2022/06/28 09:14:27;;;;;;;8.68;1.55;;;19.60;99.90;;;;;;5027420;28;20768;-77
2022/06/28 09:16:55;;;;;;;8.48;1.77;;;19.50;99.90;;;;;;5050505;28;20045;-76
2022/06/28 09:19:38;;;;;;;11.32;1.98;;;19.50;99.90;;;;;;5035210;28;20080;-76
2022/06/28 09:22:04;;;;;;;10.05;1.40;;;19.90;99.90;;;;;;5049453;28;20525;-76
2022/06/28 09:24:31;;;;;;;6.07;1.48;;;20.20;99.90;;;;;;5069367;28;20518;-76
2022/06/28 09:27:08;;;;;;;5.80;1.55;;;20.40;99.90;;;;;;5028746;28;20053;-76
2022/06/28 09:29:48;;;;;;;4.32;1.20;;;20.40;99.90;;;;;;5045850;28;20080;-76
2022/06/28 09:32:13;;;;;;;8.23;1.60;;;20.80;99.90;;;;;;5035827;28;20072;-76
2022/06/28 09:34:41;;;;;;;6.70;1.65;;;21.00;99.90;;;;;;5069752;28;20111;-77
2022/06/28 09:37:07;;;;;;;7.97;1.90;;;21.00;99.90;;;;;;5070469;28;20068;-77
2022/06/28 09:39:33;;;;;;;8.45;2.10;;;20.90;99.90;;;;;;5051726;28;20049;-77
2022/06/28 09:42:00;;;;;;;10.20;2.08;;;20.80;99.90;;;;;;5042392;28;20029;-77
2022/06/28 09:44:28;;;;;;;7.13;1.73;;;20.50;99.90;;;;;;5054398;28;20064;-77
2022/06/28 09:46:57;;;;;;;7.15;1.80;;;20.20;99.90;;;;;;5042619;28;20183;-74
2022/06/28 09:49:28;;;;;;;6.78;1.45;;;20.20;99.90;;;;;;5045251;28;20124;-77
2022/06/28 09:51:57;;;;;;;7.47;1.73;;;20.30;99.90;;;;;;5024046;28;20565;-76
2022/06/28 09:54:26;;;;;;;11.00;1.73;;;20.40;99.90;;;;;;5082296;28;20108;-75
2022/06/28 09:56:54;;;;;;;7.05;1.23;;;20.50;99.90;;;;;;5059139;28;20064;-75
2022/06/28 09:59:25;;;;;;;9.00;1.73;;;20.90;99.90;;;;;;5029234;28;20062;-77
2022/06/28 10:01:55;;;;;;;7.68;1.77;;;21.20;99.90;;;;;;5050150;28;20064;-75
2022/06/28 10:04:26;;;;;;;13.57;2.15;;;21.30;99.90;;;;;;5045785;28;20041;-76
2022/06/28 10:06:52;;;;;;;7.90;1.75;;;21.30;99.90;;;;;;5049195;28;20089;-76
2022/06/28 10:09:20;;;;;;;9.32;2.05;;;21.50;99.90;;;;;;5051958;28;20048;-79
2022/06/28 10:15:38;;;;;;;9.50;2.20;;;21.90;99.90;;;;;;5055578;28;20103;-78
2022/06/28 10:18:17;;;;;;;10.38;1.77;;;22.20;99.90;;;;;;5054786;28;20126;-79
2022/06/28 10:20:46;;;;;;;11.70;2.00;;;22.40;99.90;;;;;;5061376;28;20056;-79
2022/06/28 10:23:24;;;;;;;9.65;1.85;;;22.20;99.90;;;;;;5083716;28;20048;-78
2022/06/28 10:26:15;;;;;;;7.65;2.10;;;22.50;99.90;;;;;;5076368;28;20037;-78
2022/06/28 10:29:04;;;;;;;13.60;2.00;;;22.70;99.90;;;;;;5041324;28;20064;-78
2022/06/28 10:31:35;;;;;;;6.22;1.65;;;22.90;99.90;;;;;;5050170;28;20123;-78
2022/06/28 10:34:07;;;;;;;7.75;1.52;;;22.90;99.90;;;;;;5039553;28;20487;-77
2022/06/28 10:36:50;;;;;;;8.85;1.60;;;23.30;99.90;;;;;;5057046;28;20052;-79
2022/06/28 10:39:18;;;;;;;7.20;2.17;;;23.20;99.90;;;;;;5060748;28;20119;-80
2022/06/28 10:41:52;;;;;;;9.80;1.83;;;23.40;99.90;;;;;;5047784;28;20047;-80
2022/06/28 10:44:23;;;;;;;11.75;1.80;;;23.50;99.90;;;;;;5024420;28;20118;-79
2022/06/28 10:47:01;;;;;;;9.63;2.20;;;23.80;99.90;;;;;;5040288;28;20087;-79
2022/06/28 10:49:56;;;;;;;8.73;1.90;;;24.00;99.90;;;;;;5072482;28;20041;-79
2022/06/28 10:52:35;;;;;;;12.98;1.98;;;23.80;99.90;;;;;;5020468;28;20055;-79
2022/06/28 10:55:03;;;;;;;10.65;1.90;;;23.70;99.90;;;;;;5076016;28;20063;-77
2022/06/28 10:57:36;;;;;;;12.98;1.77;;;24.10;99.90;;;;;;5046312;28;20459;-77
2022/06/28 11:00:06;;;;;;;5.60;1.70;;;23.70;99.90;;;;;;5024803;28;20052;-80
2022/06/28 11:02:50;;;;;;;11.18;2.00;;;23.40;99.90;;;;;;5027425;28;20400;-80
2022/06/28 11:05:19;;;;;;;9.18;2.17;;;23.20;99.90;;;;;;5045268;28;20148;-77
2022/06/28 11:08:00;;;;;;;6.95;1.80;;;23.00;99.90;;;;;;5027957;28;20044;-78
2022/06/28 11:10:29;;;;;;;6.50;2.00;;;22.80;99.90;;;;;;5042938;28;20056;-79
2022/06/28 11:13:18;;;;;;;10.00;2.25;;;22.60;99.90;;;;;;5023923;28;20047;-80
2022/06/28 11:15:44;;;;;;;9.43;2.00;;;22.80;99.90;;;;;;5045735;28;20569;-81
2022/06/28 11:18:17;;;;;;;10.10;2.13;;;23.20;99.90;;;;;;5086030;28;20066;-80
2022/06/28 11:20:44;;;;;;;10.93;1.80;;;23.40;99.90;;;;;;5084610;28;20068;-83
2022/06/28 11:23:22;;;;;;;6.95;1.90;;;23.90;99.90;;;;;;5069338;28;20044;-83
2022/06/28 11:28:32;;;;;;;9.50;2.00;;;23.70;99.90;;;;;;5083024;28;20842;-80
2022/06/28 11:30:57;;;;;;;8.95;1.52;;;23.90;99.90;;;;;;5061597;28;20048;-75
2022/06/28 11:33:32;;;;;;;6.00;1.85;;;24.10;99.90;;;;;;5054754;28;20053;-79
2022/06/28 11:36:01;;;;;;;6.03;1.77;;;24.00;99.90;;;;;;5079481;28;20520;-79
2022/06/28 11:38:27;;;;;;;9.68;2.20;;;23.60;99.90;;;;;;5035651;28;20036;-76
2022/06/28 11:40:55;;;;;;;7.80;1.98;;;23.70;99.90;;;;;;5058098;28;20059;-79
2022/06/28 11:43:27;;;;;;;8.27;1.92;;;24.00;99.90;;;;;;5079993;28;20400;-77
2022/06/28 11:45:54;;;;;;;8.00;2.20;;;24.60;99.90;;;;;;5069375;28;20139;-78
2022/06/28 11:48:28;;;;;;;8.00;2.10;;;25.00;99.90;;;;;;5067408;28;20463;-77
2022/06/28 11:50:55;;;;;;;;;;;25.20;99.90;;;;;;5019202;28;20044;-77
2022/06/28 11:53:22;;;;;;;5.45;1.58;;;25.60;99.90;;;;;;5070739;28;19931;-77
2022/06/28 11:55:53;;;;;;;9.93;1.90;;;25.80;99.90;;;;;;5028981;28;20055;-76
2022/06/28 11:58:25;;;;;;;100.35;21.20;;;25.70;99.90;;;;;;5061036;28;20461;-77
2022/06/28 12:01:14;;;;;;;28.15;8.75;;;25.30;99.90;;;;;;5058794;28;20091;-78
2022/06/28 12:03:43;;;;;;;13.20;4.13;;;25.50;99.90;;;;;;5029322;28;20106;-77
2022/06/28 12:06:11;;;;;;;9.07;2.05;;;25.60;99.90;;;;;;5042873;28;20055;-78
2022/06/28 12:08:51;;;;;;;7.80;1.52;;;25.70;99.90;;;;;;5030818;28;20468;-78
2022/06/28 12:11:47;;;;;;;9.13;1.88;;;26.00;98.80;;;;;;5029867;28;20074;-76
2022/06/28 12:14:42;;;;;;;4.30;1.30;;;25.00;98.10;;;;;;5076345;28;20037;-79
2022/06/28 12:17:08;;;;;;;5.15;1.60;;;24.50;98.50;;;;;;5003100;28;20545;-77
2022/06/28 12:19:38;;;;;;;10.25;1.80;;;24.40;99.60;;;;;;5002056;28;20144;-76
2022/06/28 12:22:13;;;;;;;5.35;1.58;;;24.30;99.50;;;;;;5020283;28;20287;-78
2022/06/28 12:25:06;;;;;;;10.00;2.28;;;24.70;99.30;;;;;;4991436;28;20042;-77
2022/06/28 12:27:34;;;;;;;11.93;2.17;;;24.70;99.60;;;;;;5000161;28;20089;-78
2022/06/28 12:30:01;;;;;;;9.95;2.00;;;24.70;99.90;;;;;;5003595;28;20438;-78
2022/06/28 12:32:28;;;;;;;8.52;1.92;;;24.90;99.90;;;;;;5021156;28;20144;-78
2022/06/28 12:35:00;;;;;;;6.05;1.80;;;24.90;99.90;;;;;;4992280;28;20057;-79
2022/06/28 12:37:27;;;;;;;5.68;1.60;;;24.90;99.90;;;;;;5005965;28;20053;-78
2022/06/28 12:39:53;;;;;;;8.27;1.83;;;25.00;99.90;;;;;;4986463;28;20041;-75
2022/06/28 12:42:19;;;;;;;7.40;1.42;;;24.90;99.90;;;;;;5010148;28;20168;-75
2022/06/28 12:44:45;;;;;;;8.55;2.10;;;25.00;99.90;;;;;;5004706;28;20123;-76
2022/06/28 12:47:11;;;;;;;4.32;1.42;;;25.80;99.90;;;;;;4987843;28;20045;-77
2022/06/28 12:49:37;;;;;;;5.63;1.50;;;26.40;99.90;;;;;;4992007;28;20148;-76
2022/06/28 12:52:03;;;;;;;6.60;1.77;;;26.90;99.90;;;;;;4994528;28;20057;-77
2022/06/28 12:54:29;;;;;;;10.05;1.75;;;27.00;98.10;;;;;;5027684;28;20456;-76
2022/06/28 12:56:55;;;;;;;4.28;1.45;;;27.30;98.80;;;;;;5050739;28;20045;-77
2022/06/28 12:59:21;;;;;;;8.63;1.50;;;26.80;97.40;;;;;;5040030;28;20048;-77
2022/06/28 13:01:47;;;;;;;5.15;1.40;;;26.20;97.40;;;;;;5074689;28;20060;-77
2022/06/28 13:04:17;;;;;;;8.30;1.30;;;25.90;97.40;;;;;;5060298;28;20052;-78
2022/06/28 13:06:44;;;;;;;5.57;1.33;;;25.50;97.50;;;;;;5029465;28;20081;-77
2022/06/28 13:09:11;;;;;;;5.95;1.27;;;25.70;97.70;;;;;;5032183;28;20049;-78
2022/06/28 13:11:37;;;;;;;7.25;1.38;;;25.70;97.50;;;;;;5029069;28;20187;-78